Huvudsida
METAR-TAF:

METAR-TAF

Flygplatser :

Türkmenbaşy, Turkmenistan

latitud: 40-03-48N, longitud: 053-00-26E, höjd: 86 m

Aktuellt väderrapport

Denna rapport gjordes för 47 minuter sedan, klockan 08:00 UTC
Vind 4 kt varierande vindriktning
Temperatur 22°C
Fuktighet 31%
Tryck 1017 hPa
Sikt 10 km eller mer
Inga moln under 1 500 m eller inga cumulonimbus

METAR: UTAK 210800Z VRB04KT CAVOK 22/04 Q1017 R16R/CLRD70 NOSIG

Tid: 13:47 (08:47 UTC)

Väderprognos

Denna rapport gjordes för 4 timmar och 17 minuter sedan, klockan 04:30 UTC
Prognos gäller från 21 kl. 06 UTC till 22 kl. 06 UTC
Vind 16 kt från syd/sydost
Sikt 10 km eller mer
Inga moln under 1 500 m eller inga cumulonimbus
Temporärt
från 21 kl. 06 UTC till 21 kl. 10 UTC
Vind 16 kt från ost
Temporärt
från 21 kl. 10 UTC till 21 kl. 16 UTC
Vind 14 kt från väst/sydväst

TAF: UTAK 210430Z 2106/2206 15016KT CAVOK 530009 TEMPO 2106/2110 09016KT TEMPO 2110/2116 25014KT

Aktuella väderrapporter och prognoser från 4000 flygplatser (METAR- och TAF-rapporter).

De tillgängliga stationerna syns som gula och röda prickar på kartan.

För musen över prickarna för att se namnen på stationerna.

Klicka sedan för att få väderrapporter och prognoser.

För att ändra kartan: Klicka på de gröna knapparna med ett svart kors på för att zooma in; den gröna knappen med ett streck på för att zooma ut; eller på de gröna pilarna för angränsande kartor.


METAR-TAF: